Time;durP1;ratioP1;P1;durP2;ratioP2;P2;SDS_P1;SDS_P2;PMS_P1;PMS_P2;Temp;Humidity;BMP_temperature;BMP_pressure;BME280_temperature;BME280_humidity;BME280_pressure;Samples;Min_cycle;Max_cycle;Signal;HPM_P1;HPM_P2
2021/12/03 00:02:19;;;;;;;53.60;32.95;;;;;;;2.41;100.00;98429.06;6123379;23;20308;-76
2021/12/03 00:04:45;;;;;;;50.65;33.33;;;;;;;2.36;100.00;98433.75;6122193;23;20009;-76
2021/12/03 00:07:10;;;;;;;55.22;32.00;;;;;;;2.32;100.00;98432.34;6123039;23;20062;-75
2021/12/03 00:09:36;;;;;;;48.75;31.52;;;;;;;2.23;100.00;98446.09;6121889;23;20375;-76
2021/12/03 00:12:04;;;;;;;52.40;32.53;;;;;;;2.12;100.00;98446.09;6122769;23;20072;-76
2021/12/03 00:14:30;;;;;;;53.08;32.22;;;;;;;2.08;100.00;98448.06;6122204;23;20032;-77
2021/12/03 00:16:55;;;;;;;46.75;31.63;;;;;;;2.00;100.00;98451.25;6122665;23;20014;-76
2021/12/03 00:19:21;;;;;;;49.83;32.40;;;;;;;1.99;100.00;98453.97;6122389;23;20010;-75
2021/12/03 00:21:47;;;;;;;51.00;32.55;;;;;;;1.93;100.00;98462.25;6123661;23;20045;-76
2021/12/03 00:24:12;;;;;;;49.83;32.47;;;;;;;1.91;100.00;98462.34;6132793;23;20014;-76
2021/12/03 00:26:39;;;;;;;53.13;32.55;;;;;;;1.87;100.00;98460.94;6146745;23;20297;-75
2021/12/03 00:29:04;;;;;;;51.30;34.63;;;;;;;1.88;100.00;98462.59;6136447;23;20032;-76
2021/12/03 00:31:30;;;;;;;52.17;32.50;;;;;;;1.86;100.00;98458.44;6124186;23;20018;-76
2021/12/03 00:33:55;;;;;;;53.40;34.00;;;;;;;1.78;100.00;98466.81;6123530;23;20010;-77
2021/12/03 00:36:23;;;;;;;53.22;33.47;;;;;;;1.72;100.00;98467.28;6122626;23;20094;-75
2021/12/03 00:38:53;;;;;;;49.88;34.38;;;;;;;1.75;100.00;98477.47;6123287;23;20049;-76
2021/12/03 00:41:20;;;;;;;57.40;35.00;;;;;;;1.71;100.00;98476.00;6122478;23;20036;-75
2021/12/03 00:43:48;;;;;;;55.30;34.65;;;;;;;1.77;100.00;98485.97;6122512;23;20085;-76
2021/12/03 00:46:17;;;;;;;54.78;34.72;;;;;;;1.82;100.00;98489.06;6122068;23;20330;-76
2021/12/03 00:48:45;;;;;;;50.10;34.10;;;;;;;1.88;100.00;98485.19;6122290;23;20339;-76
2021/12/03 00:51:12;;;;;;;49.20;32.88;;;;;;;1.91;100.00;98483.16;6122864;23;20006;-76
2021/12/03 00:53:38;;;;;;;52.30;32.67;;;;;;;1.95;100.00;98489.78;6145109;23;20053;-76
2021/12/03 00:56:05;;;;;;;52.25;33.72;;;;;;;1.88;100.00;98493.81;6122215;23;20022;-76
2021/12/03 00:58:34;;;;;;;48.60;32.97;;;;;;;1.81;100.00;98497.81;6123191;23;20006;-76
2021/12/03 01:01:00;;;;;;;47.08;33.15;;;;;;;1.80;100.00;98500.53;6123438;23;20021;-76
2021/12/03 01:03:27;;;;;;;49.22;33.75;;;;;;;1.80;100.00;98506.56;6123135;23;20327;-76
2021/12/03 01:05:52;;;;;;;49.50;33.67;;;;;;;1.84;100.00;98507.97;6123492;23;20002;-75
2021/12/03 01:08:18;;;;;;;51.80;34.15;;;;;;;1.88;100.00;98525.03;6123312;23;20462;-75
2021/12/03 01:10:43;;;;;;;49.28;32.35;;;;;;;1.90;100.00;98530.94;6120954;23;20017;-74
2021/12/03 01:13:09;;;;;;;51.65;33.45;;;;;;;1.89;100.00;98534.47;6123217;23;20101;-77
2021/12/03 01:15:38;;;;;;;49.17;33.55;;;;;;;1.87;100.00;98545.94;6122796;23;20014;-75
2021/12/03 01:18:06;;;;;;;49.17;32.25;;;;;;;1.88;100.00;98548.44;6121745;23;20034;-75
2021/12/03 01:20:33;;;;;;;50.30;32.92;;;;;;;1.78;100.00;98550.03;6122818;23;20006;-76
2021/12/03 01:23:00;;;;;;;49.78;31.92;;;;;;;1.53;100.00;98547.59;6123233;23;20014;-76
2021/12/03 01:25:26;;;;;;;53.50;33.35;;;;;;;1.33;100.00;98550.78;6122404;23;20010;-76
2021/12/03 01:27:53;;;;;;;46.83;32.85;;;;;;;1.16;100.00;98547.63;6123196;23;20010;-75
2021/12/03 01:30:22;;;;;;;50.78;32.38;;;;;;;1.06;100.00;98562.16;6123069;23;20014;-75
2021/12/03 01:32:49;;;;;;;54.40;34.00;;;;;;;1.01;100.00;98558.22;6122802;23;20081;-74
2021/12/03 01:35:15;;;;;;;52.33;32.90;;;;;;;1.03;100.00;98562.41;6122614;23;20105;-74
2021/12/03 01:37:41;;;;;;;48.53;32.90;;;;;;;1.11;100.00;98549.72;6123752;23;20049;-75
2021/12/03 01:40:11;;;;;;;50.30;32.92;;;;;;;1.13;100.00;98553.00;6123072;23;20009;-76
2021/12/03 01:42:38;;;;;;;44.92;30.13;;;;;;;1.20;100.00;98567.25;6123433;23;20434;-75
2021/12/03 01:45:06;;;;;;;51.10;31.92;;;;;;;1.26;100.00;98567.75;6123693;23;20024;-75
2021/12/03 01:47:32;;;;;;;45.58;32.00;;;;;;;1.29;100.00;98577.94;6122701;23;20146;-75
2021/12/03 01:49:57;;;;;;;43.97;30.15;;;;;;;1.29;100.00;98577.94;6123768;23;20701;-75
2021/12/03 01:52:23;;;;;;;46.65;31.48;;;;;;;1.20;100.00;98580.22;6123164;23;20005;-74
2021/12/03 01:54:48;;;;;;;48.28;30.40;;;;;;;1.19;100.00;98586.34;6119098;23;20014;-76
2021/12/03 01:57:16;;;;;;;44.80;31.80;;;;;;;1.26;100.00;98598.91;6118855;23;20439;-75
2021/12/03 01:59:42;;;;;;;44.78;31.67;;;;;;;1.27;100.00;98600.59;6121557;23;20014;-76
2021/12/03 02:02:08;;;;;;;44.97;31.45;;;;;;;1.28;100.00;98599.66;6124391;23;20014;-75
2021/12/03 02:04:35;;;;;;;45.47;30.73;;;;;;;1.30;100.00;98606.38;6124776;23;20021;-75
2021/12/03 02:07:02;;;;;;;45.30;31.45;;;;;;;1.29;100.00;98609.13;6123738;23;20333;-74
2021/12/03 02:09:27;;;;;;;48.60;31.00;;;;;;;1.27;100.00;98614.41;6124696;23;20089;-74
2021/12/03 02:11:53;;;;;;;45.05;29.48;;;;;;;1.24;100.00;98615.44;6125763;23;20029;-74
2021/12/03 02:14:19;;;;;;;48.65;30.83;;;;;;;1.20;100.00;98616.63;6126733;23;20316;-74
2021/12/03 02:16:45;;;;;;;47.05;30.73;;;;;;;1.20;100.00;98627.00;6128850;23;20339;-74
2021/12/03 02:19:12;;;;;;;47.83;30.85;;;;;;;1.26;100.00;98624.91;6139611;23;20063;-76
2021/12/03 02:21:38;;;;;;;49.05;31.42;;;;;;;1.24;100.00;98633.63;6139180;23;20010;-75
2021/12/03 02:24:04;;;;;;;45.38;30.00;;;;;;;1.17;100.00;98645.41;6139516;23;20002;-75
2021/12/03 02:26:29;;;;;;;47.22;30.25;;;;;;;1.04;100.00;98652.41;6135919;23;20018;-76
2021/12/03 02:28:55;;;;;;;48.30;29.63;;;;;;;0.91;100.00;98661.94;6129307;23;20040;-76
2021/12/03 02:31:22;;;;;;;43.28;29.13;;;;;;;0.80;100.00;98674.84;6126462;23;20014;-74
2021/12/03 02:33:48;;;;;;;40.03;28.55;;;;;;;0.75;100.00;98676.91;6126713;23;20384;-74
2021/12/03 02:36:15;;;;;;;43.10;29.30;;;;;;;0.71;100.00;98685.81;6148165;23;20018;-75
2021/12/03 02:38:40;;;;;;;44.38;28.90;;;;;;;0.66;100.00;98687.91;6125101;23;20017;-74
2021/12/03 02:41:07;;;;;;;45.70;29.67;;;;;;;0.61;100.00;98689.97;6124636;23;20018;-75
2021/12/03 02:43:33;;;;;;;46.20;29.60;;;;;;;0.59;100.00;98692.66;6124239;23;20006;-75
2021/12/03 02:45:59;;;;;;;44.30;28.85;;;;;;;0.62;100.00;98702.03;6123048;23;20010;-76
2021/12/03 02:48:26;;;;;;;42.50;29.38;;;;;;;0.65;100.00;98707.03;6124002;23;20017;-75
2021/12/03 02:50:52;;;;;;;40.50;27.58;;;;;;;0.71;100.00;98701.41;6124636;23;20442;-77
2021/12/03 02:53:18;;;;;;;40.72;28.45;;;;;;;0.78;100.00;98707.84;6124727;23;20057;-74
2021/12/03 02:55:44;;;;;;;42.25;28.58;;;;;;;0.84;100.00;98723.03;6124756;23;20375;-76
2021/12/03 02:58:12;;;;;;;44.50;28.45;;;;;;;0.88;100.00;98726.28;6125028;23;20424;-76
2021/12/03 03:00:39;;;;;;;38.50;27.00;;;;;;;0.91;100.00;98731.25;6146971;23;20010;-75
2021/12/03 03:03:05;;;;;;;41.65;27.48;;;;;;;0.94;100.00;98734.50;6122764;23;20014;-75
2021/12/03 03:05:31;;;;;;;40.95;27.10;;;;;;;0.94;100.00;98738.84;6123951;23;20002;-77
2021/12/03 03:07:57;;;;;;;37.17;26.35;;;;;;;0.82;100.00;98746.50;6122436;23;20022;-76
2021/12/03 03:10:28;;;;;;;39.85;26.67;;;;;;;0.71;100.00;98754.16;6122823;23;20006;-76
2021/12/03 03:12:54;;;;;;;37.22;25.77;;;;;;;0.63;100.00;98760.81;6124231;23;20066;-74
2021/12/03 03:15:20;;;;;;;40.17;24.63;;;;;;;0.40;100.00;98765.72;6123238;23;20010;-74
2021/12/03 03:17:46;;;;;;;37.45;26.42;;;;;;;0.27;100.00;98780.41;6124332;23;20222;-76
2021/12/03 03:20:14;;;;;;;41.40;26.30;;;;;;;0.22;100.00;98787.66;6124366;23;20308;-76
2021/12/03 03:22:42;;;;;;;40.20;26.02;;;;;;;0.16;100.00;98793.25;6123856;23;20044;-75
2021/12/03 03:25:12;;;;;;;45.00;25.73;;;;;;;0.15;100.00;98799.34;6123639;23;20002;-74
2021/12/03 03:27:40;;;;;;;41.17;26.83;;;;;;;0.19;100.00;98802.56;6123673;23;20021;-75
2021/12/03 03:30:11;;;;;;;37.70;26.42;;;;;;;0.26;100.00;98803.84;6122807;23;20124;-75
2021/12/03 03:32:37;;;;;;;37.88;27.05;;;;;;;0.30;100.00;98803.56;6123872;23;20033;-74
2021/12/03 03:35:03;;;;;;;43.83;26.90;;;;;;;0.35;100.00;98809.28;6124171;23;20033;-75
2021/12/03 03:37:30;;;;;;;42.13;27.85;;;;;;;0.38;100.00;98803.91;6123822;23;20323;-76
2021/12/03 03:39:55;;;;;;;38.50;26.95;;;;;;;0.42;100.00;98820.13;6123761;23;20009;-74
2021/12/03 03:42:21;;;;;;;37.42;26.63;;;;;;;0.46;100.00;98820.78;6123290;23;20010;-75
2021/12/03 03:44:48;;;;;;;36.50;25.05;;;;;;;0.47;100.00;98825.03;6123064;23;20109;-75
2021/12/03 03:47:14;;;;;;;39.38;24.27;;;;;;;0.47;100.00;98832.81;6124441;23;20013;-77
2021/12/03 03:49:39;;;;;;;40.28;25.17;;;;;;;0.46;100.00;98846.72;6124233;23;20017;-75
2021/12/03 03:52:06;;;;;;;34.75;24.30;;;;;;;0.46;100.00;98844.97;6124192;23;20388;-76
2021/12/03 03:54:32;;;;;;;32.42;24.63;;;;;;;0.51;100.00;98849.88;6123723;23;20022;-74
2021/12/03 03:56:59;;;;;;;39.35;24.35;;;;;;;0.52;100.00;98849.78;6123526;23;20028;-75
2021/12/03 03:59:25;;;;;;;39.38;24.95;;;;;;;0.56;100.00;98851.22;6124107;23;20010;-76
2021/12/03 04:01:51;;;;;;;32.13;22.17;;;;;;;0.58;100.00;98856.34;6129853;23;20017;-75
2021/12/03 04:04:21;;;;;;;33.97;23.20;;;;;;;0.58;100.00;98856.34;6148560;23;20017;-75
2021/12/03 04:06:47;;;;;;;37.70;21.90;;;;;;;0.48;100.00;98852.63;6144921;23;20435;-76
2021/12/03 04:09:13;;;;;;;30.48;21.33;;;;;;;0.41;100.00;98860.81;6124433;23;20013;-75
2021/12/03 04:11:39;;;;;;;31.95;22.85;;;;;;;0.32;100.00;98866.59;6123926;23;20814;-75
2021/12/03 04:14:04;;;;;;;29.85;20.98;;;;;;;0.15;100.00;98861.63;6124115;23;20041;-76
2021/12/03 04:16:31;;;;;;;30.00;22.02;;;;;;;0.02;100.00;98867.63;6122901;23;20105;-76
2021/12/03 04:18:57;;;;;;;27.65;21.05;;;;;;;-0.03;100.00;98873.94;6123493;23;20018;-75
2021/12/03 04:21:24;;;;;;;33.65;21.50;;;;;;;-0.13;100.00;98870.25;6123182;23;20083;-75
2021/12/03 04:23:50;;;;;;;31.67;22.27;;;;;;;-0.23;100.00;98873.47;6123692;23;20017;-77
2021/12/03 04:26:16;;;;;;;33.97;22.55;;;;;;;-0.29;100.00;98876.44;6123253;23;20296;-76
2021/12/03 04:28:41;;;;;;;31.17;23.77;;;;;;;-0.29;100.00;98884.19;6123362;23;20044;-74
2021/12/03 04:31:07;;;;;;;34.50;22.80;;;;;;;-0.29;100.00;98889.38;6124200;23;20017;-74
2021/12/03 04:33:33;;;;;;;28.67;20.80;;;;;;;-0.23;100.00;98894.22;6123452;23;20018;-77
2021/12/03 04:36:00;;;;;;;33.05;21.58;;;;;;;-0.17;100.00;98894.69;6123676;23;20347;-75
2021/12/03 04:38:26;;;;;;;28.65;20.73;;;;;;;-0.15;100.00;98905.81;6121868;23;20439;-77
2021/12/03 04:40:51;;;;;;;30.88;21.17;;;;;;;-0.17;100.00;98914.59;6123122;23;20010;-74
2021/12/03 04:43:17;;;;;;;31.98;22.10;;;;;;;-0.25;100.00;98914.22;6121957;23;20018;-75
2021/12/03 04:45:43;;;;;;;32.60;22.13;;;;;;;-0.26;100.00;98920.34;6123647;23;20324;-76
2021/12/03 04:48:09;;;;;;;33.17;23.30;;;;;;;-0.28;100.00;98928.19;6124314;23;20338;-75
2021/12/03 04:50:38;;;;;;;33.38;22.65;;;;;;;-0.31;100.00;98935.34;6123839;23;20022;-76
2021/12/03 04:53:05;;;;;;;32.30;22.63;;;;;;;-0.29;100.00;98931.72;6124671;23;20012;-75
2021/12/03 04:55:32;;;;;;;35.15;23.15;;;;;;;-0.30;100.00;98939.59;6123136;23;20010;-75
2021/12/03 04:57:58;;;;;;;34.17;23.30;;;;;;;-0.44;100.00;98933.44;6123364;23;20018;-74
2021/12/03 05:00:32;;;;;;;29.45;21.55;;;;;;;-0.55;100.00;98935.84;6123057;23;20082;-75
2021/12/03 05:02:59;;;;;;;27.85;21.10;;;;;;;-0.66;100.00;98953.75;6123625;23;20014;-74
2021/12/03 05:05:26;;;;;;;32.63;20.70;;;;;;;-0.76;100.00;98952.59;6123189;23;20092;-74
2021/12/03 05:07:58;;;;;;;32.75;21.85;;;;;;;-0.70;100.00;98957.41;6123399;23;20014;-75
2021/12/03 05:10:33;;;;;;;32.72;21.50;;;;;;;-0.62;100.00;98949.22;6120550;23;20436;-74
2021/12/03 05:13:05;;;;;;;27.88;20.33;;;;;;;-0.54;100.00;98958.25;6122795;23;20021;-74
2021/12/03 05:15:32;;;;;;;30.85;20.45;;;;;;;-0.43;100.00;98953.28;6122624;23;20014;-75
2021/12/03 05:17:58;;;;;;;26.77;19.48;;;;;;;-0.32;100.00;98957.00;6123436;23;20097;-75
2021/12/03 05:20:23;;;;;;;27.67;19.05;;;;;;;-0.30;100.00;98950.81;6122682;23;20053;-74
2021/12/03 05:22:49;;;;;;;25.20;18.27;;;;;;;-0.22;100.00;98955.50;6123293;23;20124;-77
2021/12/03 05:25:15;;;;;;;27.73;19.17;;;;;;;-0.19;100.00;98965.72;6123036;23;20017;-74
2021/12/03 05:27:40;;;;;;;25.23;16.88;;;;;;;-0.14;100.00;98972.31;6122749;23;20097;-74
2021/12/03 05:30:08;;;;;;;26.15;17.35;;;;;;;-0.09;100.00;98974.63;6123303;23;20448;-74
2021/12/03 05:32:34;;;;;;;20.33;15.70;;;;;;;-0.19;100.00;98978.69;6123023;23;20045;-75
2021/12/03 05:34:59;;;;;;;21.67;15.80;;;;;;;-0.28;100.00;98974.03;6123522;23;20427;-75
2021/12/03 05:37:26;;;;;;;23.42;16.73;;;;;;;-0.34;100.00;98984.75;6125421;23;20021;-75
2021/12/03 05:39:52;;;;;;;19.50;15.07;;;;;;;-0.38;100.00;98983.25;6125428;23;20016;-75
2021/12/03 05:42:17;;;;;;;21.48;15.20;;;;;;;-0.45;100.00;98988.81;6124672;23;20089;-75
2021/12/03 05:44:43;;;;;;;26.23;15.55;;;;;;;-0.50;100.00;98990.81;6123541;23;20338;-75
2021/12/03 05:47:08;;;;;;;21.45;15.52;;;;;;;-0.46;100.00;98992.31;6125228;23;20065;-75
2021/12/03 05:49:34;;;;;;;23.27;16.80;;;;;;;-0.48;100.00;98999.34;6147944;23;20133;-76
2021/12/03 05:51:59;;;;;;;22.73;15.63;;;;;;;-0.48;100.00;99008.88;6125148;23;20017;-76
2021/12/03 05:54:27;;;;;;;22.73;16.10;;;;;;;-0.46;100.00;99010.44;6124642;23;20006;-75
2021/12/03 05:56:53;;;;;;;22.50;15.90;;;;;;;-0.41;100.00;99015.38;6124786;23;20312;-75
2021/12/03 05:59:19;;;;;;;20.48;15.93;;;;;;;-0.45;100.00;99027.69;6122674;23;20010;-75
2021/12/03 06:01:45;;;;;;;21.58;16.05;;;;;;;-0.45;100.00;99030.28;6124973;23;20013;-77
2021/12/03 06:04:11;;;;;;;25.67;17.20;;;;;;;-0.59;100.00;99048.34;6125411;23;20002;-74
2021/12/03 06:06:37;;;;;;;23.80;16.65;;;;;;;-0.59;100.00;99053.53;6126079;23;20022;-74
2021/12/03 06:09:03;;;;;;;20.25;15.10;;;;;;;-0.73;100.00;99056.06;6126313;23;20024;-76
2021/12/03 06:11:29;;;;;;;20.38;14.95;;;;;;;-0.89;100.00;99060.41;6124112;23;20013;-76
2021/12/03 06:13:54;;;;;;;18.75;14.02;;;;;;;-1.02;100.00;99074.94;6125341;23;20014;-77
2021/12/03 06:16:20;;;;;;;18.88;13.35;;;;;;;-1.04;100.00;99082.78;6124941;23;20009;-76
2021/12/03 06:18:45;;;;;;;20.35;14.63;;;;;;;-1.00;100.00;99086.06;6147891;23;20056;-77
2021/12/03 06:21:12;;;;;;;18.33;13.60;;;;;;;-0.93;100.00;99093.41;6124856;23;20088;-76
2021/12/03 06:23:39;;;;;;;17.92;12.40;;;;;;;-0.89;100.00;99096.69;6122537;23;20095;-76
2021/12/03 06:26:07;;;;;;;15.25;11.68;;;;;;;-0.89;100.00;99107.03;6124800;23;20021;-77
2021/12/03 06:28:34;;;;;;;16.35;11.40;;;;;;;-0.97;100.00;99114.38;6120654;23;20014;-77
2021/12/03 06:31:00;;;;;;;12.73;11.10;;;;;;;-0.92;100.00;99122.72;6122712;23;20033;-77
2021/12/03 06:33:26;;;;;;;14.90;11.52;;;;;;;-0.88;100.00;99119.03;6126218;23;20050;-76
2021/12/03 06:35:51;;;;;;;14.18;11.63;;;;;;;-0.92;100.00;99122.72;6134787;23;20002;-78
2021/12/03 06:38:17;;;;;;;15.43;11.90;;;;;;;-0.99;100.00;99127.38;6132135;23;20017;-77
2021/12/03 06:40:44;;;;;;;14.82;10.20;;;;;;;-1.05;100.00;99139.81;6128501;23;20654;-75
2021/12/03 06:43:10;;;;;;;16.83;11.45;;;;;;;-1.13;100.00;99139.41;6129009;23;19998;-75
2021/12/03 06:45:36;;;;;;;13.57;9.68;;;;;;;-1.13;100.00;99144.59;6124117;23;20053;-74
2021/12/03 06:48:02;;;;;;;14.18;10.02;;;;;;;-1.11;100.00;99147.91;6124795;23;20328;-75
2021/12/03 06:50:29;;;;;;;14.52;10.50;;;;;;;-1.13;100.00;99154.94;6125158;23;20010;-77
2021/12/03 06:53:02;;;;;;;14.05;9.40;;;;;;;-1.14;100.00;99159.28;6124026;23;20145;-78
2021/12/03 06:55:28;;;;;;;11.32;8.52;;;;;;;-1.12;100.00;99161.81;6123434;23;20010;-78
2021/12/03 06:57:54;;;;;;;13.57;9.00;;;;;;;-1.06;100.00;99166.66;6125045;23;20006;-79
2021/12/03 07:00:22;;;;;;;9.68;8.40;;;;;;;-0.95;100.00;99179.88;6124862;23;20021;-78
2021/12/03 07:02:47;;;;;;;11.63;8.98;;;;;;;-0.86;100.00;99184.56;6123694;23;20002;-78
2021/12/03 07:05:14;;;;;;;12.32;8.30;;;;;;;-0.78;100.00;99187.59;6124927;23;20017;-77
2021/12/03 07:07:41;;;;;;;9.10;7.85;;;;;;;-0.68;100.00;99183.59;6124389;23;20024;-76
2021/12/03 07:10:08;;;;;;;8.98;7.55;;;;;;;-0.60;100.00;99189.22;6123905;23;20026;-77
2021/12/03 07:12:34;;;;;;;8.00;7.20;;;;;;;-0.53;100.00;99198.31;6123272;23;20009;-77
2021/12/03 07:15:00;;;;;;;9.70;7.20;;;;;;;-0.47;100.00;99213.53;6124336;23;20010;-77
2021/12/03 07:17:30;;;;;;;11.30;8.05;;;;;;;-0.44;100.00;99212.56;6123660;23;20324;-77
2021/12/03 07:19:57;;;;;;;8.27;7.27;;;;;;;-0.46;100.00;99220.41;6124355;23;20096;-77
2021/12/03 07:22:23;;;;;;;7.75;7.00;;;;;;;-0.45;100.00;99224.66;6124206;23;20001;-78
2021/12/03 07:24:49;;;;;;;8.77;6.28;;;;;;;-0.43;100.00;99229.78;6122777;23;20432;-78
2021/12/03 07:27:14;;;;;;;6.45;5.32;;;;;;;-0.53;100.00;99239.78;6123892;23;20100;-78
2021/12/03 07:29:40;;;;;;;5.82;5.30;;;;;;;-0.62;100.00;99248.06;6122427;23;20014;-78
2021/12/03 07:32:06;;;;;;;6.55;5.55;;;;;;;-0.65;100.00;99249.97;6123970;23;20017;-78
2021/12/03 07:34:32;;;;;;;6.43;5.57;;;;;;;-0.63;100.00;99267.09;6123132;23;20365;-79
2021/12/03 07:36:57;;;;;;;5.60;5.07;;;;;;;-0.61;100.00;99261.84;6122406;23;20013;-79
2021/12/03 07:39:23;;;;;;;5.50;5.00;;;;;;;-0.58;100.00;99267.69;6123908;23;20343;-74
2021/12/03 07:41:49;;;;;;;7.45;5.70;;;;;;;-0.53;100.00;99265.69;6126497;23;20010;-77
2021/12/03 07:44:14;;;;;;;5.65;4.95;;;;;;;-0.38;100.00;99273.59;6147312;23;20080;-78
2021/12/03 07:46:40;;;;;;;7.70;4.93;;;;;;;-0.27;100.00;99273.88;6143997;23;20012;-77
2021/12/03 07:49:05;;;;;;;7.25;4.35;;;;;;;-0.12;100.00;99286.03;6127196;23;20021;-78
2021/12/03 07:51:31;;;;;;;6.57;4.53;;;;;;;-0.03;100.00;99286.34;6126189;23;20005;-78
2021/12/03 07:53:57;;;;;;;4.90;4.38;;;;;;;0.06;100.00;99279.81;6124377;23;20044;-77
2021/12/03 07:56:22;;;;;;;6.00;5.38;;;;;;;0.18;100.00;99284.31;6123868;23;20014;-78
2021/12/03 07:58:48;;;;;;;5.63;5.10;;;;;;;0.27;100.00;99283.84;6124246;23;20064;-78
2021/12/03 08:01:13;;;;;;;7.50;4.75;;;;;;;0.38;100.00;99297.06;6124032;23;20128;-77
2021/12/03 08:03:39;;;;;;;7.60;5.57;;;;;;;0.47;100.00;99300.06;6121693;23;20522;-76
2021/12/03 08:06:08;;;;;;;6.70;5.57;;;;;;;0.61;100.00;99310.50;6123584;23;20081;-77
2021/12/03 08:08:37;;;;;;;7.35;6.15;;;;;;;0.70;100.00;99315.19;6123596;23;20017;-77
2021/12/03 08:11:03;;;;;;;8.63;7.72;;;;;;;0.75;100.00;99320.97;6120852;23;20013;-78
2021/12/03 08:13:29;;;;;;;9.70;7.47;;;;;;;0.74;98.08;99324.47;6104300;23;20014;-76
2021/12/03 08:15:55;;;;;;;9.15;6.95;;;;;;;0.76;98.37;99327.81;6117581;23;20006;-76
2021/12/03 08:18:20;;;;;;;9.15;6.80;;;;;;;0.81;96.86;99323.19;6122773;23;20021;-76
2021/12/03 08:20:46;;;;;;;9.77;6.72;;;;;;;0.90;96.51;99329.63;6125895;23;20017;-76
2021/12/03 08:23:14;;;;;;;9.70;6.35;;;;;;;0.95;96.82;99338.81;6139807;23;20404;-76
2021/12/03 08:25:40;;;;;;;7.55;6.50;;;;;;;1.05;95.75;99334.78;6123798;23;20006;-74
2021/12/03 08:28:05;;;;;;;8.57;6.28;;;;;;;1.14;95.92;99339.44;6123175;23;20010;-75
2021/12/03 08:30:31;;;;;;;8.40;7.22;;;;;;;1.22;95.39;99337.25;6123104;23;20012;-76
2021/12/03 08:32:58;;;;;;;7.93;7.15;;;;;;;1.32;95.05;99341.91;6122652;23;20014;-76
2021/12/03 08:35:26;;;;;;;9.90;6.63;;;;;;;1.43;94.49;99344.69;6122027;23;20010;-76
2021/12/03 08:37:52;;;;;;;13.07;6.78;;;;;;;1.49;93.66;99339.13;6121674;23;20089;-76
2021/12/03 08:40:20;;;;;;;18.33;8.32;;;;;;;1.57;93.85;99347.31;6121658;23;20010;-74
2021/12/03 08:42:45;;;;;;;10.90;7.50;;;;;;;1.63;93.80;99341.75;6122320;23;20013;-75
2021/12/03 08:45:12;;;;;;;12.38;8.27;;;;;;;1.71;92.41;99355.13;6122404;23;20096;-76
2021/12/03 08:47:39;;;;;;;14.48;8.00;;;;;;;1.76;93.33;99368.72;6122553;23;20021;-75
2021/12/03 08:50:11;;;;;;;9.60;7.63;;;;;;;1.89;91.71;99380.03;6122833;23;20002;-76
2021/12/03 08:55:15;;;;;;;8.63;7.10;;;;;;;1.95;92.53;99379.66;6122685;23;20010;-74
2021/12/03 08:57:40;;;;;;;9.75;6.85;;;;;;;1.99;91.59;99391.59;6121912;23;20021;-75
2021/12/03 09:00:16;;;;;;;11.60;7.38;;;;;;;2.06;91.73;99397.25;6122938;23;20398;-76
2021/12/03 09:02:43;;;;;;;11.80;7.50;;;;;;;2.09;92.03;99396.22;6121546;23;20316;-78
2021/12/03 09:05:10;;;;;;;11.20;8.25;;;;;;;2.14;92.46;99400.22;6120808;23;20268;-76
2021/12/03 09:07:39;;;;;;;10.02;7.20;;;;;;;2.23;93.19;99404.03;6122176;23;20399;-75
2021/12/03 09:10:10;;;;;;;11.25;7.85;;;;;;;2.32;93.15;99413.88;6123209;23;20040;-77
2021/12/03 09:12:37;;;;;;;9.05;7.47;;;;;;;2.40;93.06;99403.81;6115401;23;20006;-76
2021/12/03 09:15:07;;;;;;;10.73;7.30;;;;;;;2.47;93.25;99407.72;6111999;23;20002;-76
2021/12/03 09:17:39;;;;;;;;;;;;;;;2.58;93.27;99410.50;6123669;23;20502;-75
2021/12/03 09:20:23;;;;;;;12.32;7.63;;;;;;;2.65;93.13;99411.75;6124805;23;19919;-75
2021/12/03 09:22:53;;;;;;;15.80;7.93;;;;;;;2.77;91.75;99417.97;6124514;23;20033;-76
2021/12/03 09:25:31;;;;;;;;;;;;;;;2.83;91.29;99426.22;6124545;23;20080;-75
2021/12/03 09:27:59;;;;;;;8.90;7.63;;;;;;;3.03;87.90;99417.16;6124216;23;19938;-75
2021/12/03 09:30:24;;;;;;;11.57;8.48;;;;;;;3.20;85.56;99419.50;6124293;23;20006;-76
2021/12/03 09:32:55;;;;;;;14.75;8.70;;;;;;;3.33;83.60;99429.97;6124858;23;20507;-75
2021/12/03 09:35:23;;;;;;;13.25;9.00;;;;;;;3.48;81.98;99428.09;6124103;23;20040;-74
2021/12/03 09:37:48;;;;;;;9.57;7.82;;;;;;;3.60;82.62;99438.56;6123496;23;20009;-74
2021/12/03 09:40:20;;;;;;;14.90;8.85;;;;;;;3.72;83.30;99448.19;6124002;23;20013;-77
2021/12/03 09:42:46;;;;;;;10.88;8.52;;;;;;;3.83;82.76;99449.28;6124255;23;20147;-77
2021/12/03 09:45:12;;;;;;;11.85;8.50;;;;;;;3.92;82.99;99446.03;6124207;23;20068;-77
2021/12/03 09:47:38;;;;;;;17.33;10.07;;;;;;;4.00;86.34;99441.13;6123998;23;20013;-75
2021/12/03 09:50:10;;;;;;;13.30;10.38;;;;;;;4.11;88.19;99449.06;6124460;23;20085;-75
2021/12/03 09:55:12;;;;;;;16.80;10.47;;;;;;;4.29;87.32;99441.75;6124541;23;20005;-74
2021/12/03 09:57:44;;;;;;;16.48;10.30;;;;;;;4.33;87.07;99438.81;6123904;23;20514;-75
2021/12/03 10:00:20;;;;;;;15.05;10.95;;;;;;;4.39;87.64;99435.78;6124598;23;20016;-76
2021/12/03 10:11:37;;;;;;;11.00;8.65;;;;;;;4.79;77.86;99425.13;6123542;23;20010;-77
2021/12/03 10:19:00;;;;;;;9.88;7.50;;;;;;;5.05;76.88;99415.41;6124250;23;20018;-77
2021/12/03 10:27:42;;;;;;;12.25;8.80;;;;;;;5.25;81.11;99418.22;6131189;23;20031;-78
2021/12/03 10:33:28;;;;;;;11.60;9.20;;;;;;;5.38;82.41;99412.09;6124619;23;20399;-76
2021/12/03 10:41:51;;;;;;;14.40;9.82;;;;;;;5.52;82.73;99419.78;6124728;23;20431;-78
2021/12/03 10:54:19;;;;;;;11.77;9.10;;;;;;;5.72;80.91;99392.91;6128249;23;20127;-76
2021/12/03 11:21:48;;;;;;;14.65;9.18;;;;;;;6.42;68.66;99379.69;6142320;23;20014;-74
2021/12/03 11:37:31;;;;;;;10.55;7.93;;;;;;;7.31;66.80;99374.16;6124934;23;20014;-74
2021/12/03 14:43:36;;;;;;;3.67;3.38;;;;;;;9.40;42.82;99345.28;6091113;23;20464;-77
2021/12/03 14:49:40;;;;;;;3.92;3.50;;;;;;;9.29;44.26;99348.06;6128334;23;20010;-82
2021/12/03 14:52:15;;;;;;;3.70;3.25;;;;;;;9.23;44.77;99338.09;6137108;23;20006;-82
2021/12/03 15:00:09;;;;;;;3.50;3.17;;;;;;;9.08;44.33;99344.72;6136948;23;20424;-76
2021/12/03 15:02:51;;;;;;;3.58;3.28;;;;;;;9.02;44.56;99346.13;6135542;23;20084;-77
2021/12/03 15:08:05;;;;;;;3.75;3.30;;;;;;;8.92;45.12;99349.72;6128147;23;20072;-77
2021/12/03 15:10:51;;;;;;;3.20;3.00;;;;;;;8.89;44.48;99355.28;6139821;23;20037;-80
2021/12/03 15:26:53;;;;;;;8.45;6.72;;;;;;;8.57;44.47;99377.34;6123414;23;20388;-79
2021/12/03 16:06:41;;;;;;;10.60;7.28;;;;;;;7.54;48.57;99396.69;6121890;23;20018;-83
2021/12/03 16:09:12;;;;;;;19.17;8.07;;;;;;;7.48;49.55;99385.91;6121387;23;20143;-82
2021/12/03 16:11:58;;;;;;;16.38;7.85;;;;;;;7.42;49.65;99387.25;6121208;23;20336;-81
2021/12/03 16:17:28;;;;;;;18.10;11.18;;;;;;;7.23;50.36;99392.34;6095290;23;20021;-83
2021/12/03 16:20:07;;;;;;;15.88;11.32;;;;;;;7.13;51.05;99396.69;6123425;23;20010;-81
2021/12/03 16:43:51;;;;;;;20.15;12.07;;;;;;;6.12;59.35;99409.94;6132184;23;20085;-83
2021/12/03 16:51:47;;;;;;;17.25;10.00;;;;;;;5.94;61.55;99437.53;6152882;23;20080;-82
2021/12/03 16:54:21;;;;;;;15.85;10.63;;;;;;;5.86;62.50;99429.38;6153412;23;20017;-83
2021/12/03 16:56:49;;;;;;;15.75;10.48;;;;;;;5.80;62.85;99440.31;6131314;23;20018;-85
2021/12/03 16:59:15;;;;;;;18.55;10.45;;;;;;;5.71;64.02;99446.25;6131491;23;20057;-82
2021/12/03 17:02:05;;;;;;;16.05;10.20;;;;;;;5.66;64.44;99443.94;6130983;23;20084;-83
2021/12/03 17:15:35;;;;;;;12.13;8.07;;;;;;;5.49;67.71;99446.16;6112072;23;20339;-87
2021/12/03 17:45:47;;;;;;;14.07;9.63;;;;;;;4.79;72.65;99478.25;6096982;23;20022;-86
2021/12/03 18:00:05;;;;;;;25.33;12.63;;;;;;;4.19;75.36;99499.00;6126590;23;20014;-88
2021/12/03 18:02:42;;;;;;;27.88;14.35;;;;;;;4.09;76.31;99488.34;6129136;23;20025;-88
2021/12/03 18:10:29;;;;;;;15.98;10.73;;;;;;;4.00;78.10;99498.59;6125626;23;20502;-86
2021/12/03 18:14:15;;;;;;;15.50;8.95;;;;;;;4.04;76.89;99502.66;6123619;23;20093;-86
2021/12/03 18:56:44;;;;;;;17.40;10.77;;;;;;;3.33;78.05;99512.59;6120040;23;20030;-84
2021/12/03 18:59:07;;;;;;;19.63;11.13;;;;;;;3.24;78.10;99520.06;6089177;23;20062;-85